Time;durP1;ratioP1;P1;durP2;ratioP2;P2;SDS_P1;SDS_P2;PMS_P1;PMS_P2;Temp;Humidity;BMP_temperature;BMP_pressure;BME280_temperature;BME280_humidity;BME280_pressure;Samples;Min_cycle;Max_cycle;Signal;HPM_P1;HPM_P2
2021/10/01 00:00:08;;;;;;;19.08;10.05;;;;;;;9.88;64.29;101376.25;5031309;28;20044;-53
2021/10/01 00:02:34;;;;;;;18.85;10.25;;;;;;;9.88;63.69;101370.19;5031329;28;20072;-54
2021/10/01 00:05:00;;;;;;;21.23;10.77;;;;;;;9.87;63.95;101371.91;5029690;28;20073;-55
2021/10/01 00:07:29;;;;;;;18.13;10.27;;;;;;;9.85;63.57;101378.84;5031472;28;20042;-53
2021/10/01 00:09:55;;;;;;;21.13;11.27;;;;;;;9.78;64.10;101366.75;5031284;28;20073;-50
2021/10/01 00:12:20;;;;;;;19.02;9.98;;;;;;;9.78;64.00;101367.63;5028392;28;20450;-50
2021/10/01 00:14:48;;;;;;;19.25;10.45;;;;;;;9.75;63.70;101367.63;5030850;28;20045;-53
2021/10/01 00:17:14;;;;;;;23.20;11.40;;;;;;;9.82;63.58;101384.06;5031060;28;20033;-51
2021/10/01 00:19:40;;;;;;;19.50;10.50;;;;;;;9.83;63.38;101382.31;5024787;28;20048;-53
2021/10/01 00:22:06;;;;;;;23.20;11.68;;;;;;;9.82;63.31;101381.44;5029682;28;20041;-53
2021/10/01 00:24:32;;;;;;;25.90;11.60;;;;;;;9.81;63.81;101382.31;5030805;28;20037;-56
2021/10/01 00:26:59;;;;;;;22.25;11.82;;;;;;;9.71;63.44;101371.09;5030706;28;20083;-53
2021/10/01 00:29:24;;;;;;;24.30;10.75;;;;;;;9.81;63.65;101377.13;5030842;28;20493;-51
2021/10/01 00:31:50;;;;;;;19.23;10.30;;;;;;;9.81;63.65;101377.13;5030394;28;20049;-52
2021/10/01 00:34:18;;;;;;;24.08;10.68;;;;;;;9.82;63.15;101380.59;5029284;28;20045;-52
2021/10/01 00:36:44;;;;;;;21.67;10.63;;;;;;;9.80;62.98;101383.19;5029904;28;20091;-51
2021/10/01 00:39:10;;;;;;;23.00;10.55;;;;;;;9.81;63.05;101379.72;5002589;28;20041;-53
2021/10/01 00:41:37;;;;;;;17.63;9.65;;;;;;;9.71;63.17;101365.91;5030721;28;20166;-55
2021/10/01 00:44:04;;;;;;;18.92;10.00;;;;;;;9.78;63.39;101388.41;5012121;28;20094;-52
2021/10/01 00:46:31;;;;;;;21.85;10.57;;;;;;;9.78;62.63;101387.53;5028576;28;20071;-53
2021/10/01 00:48:58;;;;;;;23.90;10.75;;;;;;;9.70;63.26;101365.91;5030144;28;20520;-54
2021/10/01 00:51:25;;;;;;;19.60;10.13;;;;;;;9.77;63.56;101380.63;5030056;28;20512;-51
2021/10/01 00:53:52;;;;;;;20.20;10.30;;;;;;;9.77;63.58;101378.00;5030289;28;20632;-52
2021/10/01 00:56:20;;;;;;;19.50;9.80;;;;;;;9.77;63.45;101380.63;5022411;28;20481;-55
2021/10/01 00:58:46;;;;;;;17.35;9.32;;;;;;;9.76;64.13;101386.66;5025728;28;20041;-49
2021/10/01 01:01:12;;;;;;;20.50;10.10;;;;;;;9.76;64.32;101377.16;5029208;28;20041;-52
2021/10/01 01:04:11;;;;;;;15.85;8.68;;;;;;;9.73;64.29;101381.50;5027807;28;20067;-54
2021/10/01 01:06:56;;;;;;;16.90;9.63;;;;;;;9.61;64.21;101384.13;4990661;28;20053;-51
2021/10/01 01:09:31;;;;;;;20.58;9.52;;;;;;;9.54;64.20;101374.63;5012302;28;20069;-56
2021/10/01 01:12:10;;;;;;;18.98;9.45;;;;;;;9.46;63.99;101374.66;5026681;28;20045;-53
2021/10/01 01:14:41;;;;;;;14.35;8.73;;;;;;;9.39;63.78;101382.44;5038360;28;20045;-53
2021/10/01 01:17:23;;;;;;;17.67;8.82;;;;;;;9.36;64.54;101378.16;5044809;28;20051;-52
2021/10/01 01:20:07;;;;;;;18.23;9.18;;;;;;;9.37;63.76;101384.22;5012185;28;20048;-55
2021/10/01 01:23:11;;;;;;;17.33;9.05;;;;;;;9.34;64.03;101385.06;5027685;28;20045;-53
2021/10/01 01:25:59;;;;;;;17.90;8.85;;;;;;;9.37;63.92;101381.63;5008040;28;20517;-54
2021/10/01 01:28:40;;;;;;;16.25;9.13;;;;;;;9.39;64.18;101377.25;5026992;28;20053;-51
2021/10/01 01:31:25;;;;;;;18.33;9.80;;;;;;;9.38;63.88;101383.31;5009265;28;20052;-52
2021/10/01 01:33:52;;;;;;;15.48;9.63;;;;;;;9.42;63.91;101385.06;5013638;28;20552;-54
2021/10/01 01:36:20;;;;;;;16.30;9.02;;;;;;;9.43;64.04;101384.16;5001867;28;20050;-56
2021/10/01 01:38:50;;;;;;;15.90;9.20;;;;;;;9.43;64.44;101387.63;5044968;28;20676;-54
2021/10/01 01:41:17;;;;;;;14.10;9.00;;;;;;;9.43;64.20;101387.63;5033426;28;20048;-54
2021/10/01 01:43:43;;;;;;;14.48;9.00;;;;;;;9.43;64.47;101386.75;5031085;28;20041;-53
2021/10/01 01:46:09;;;;;;;14.23;9.35;;;;;;;9.43;64.19;101385.03;5011943;28;20057;-53
2021/10/01 01:48:37;;;;;;;16.25;9.32;;;;;;;9.40;63.93;101387.66;5034031;28;20037;-55
2021/10/01 01:51:03;;;;;;;14.45;8.88;;;;;;;9.41;63.75;101381.59;5016474;28;20049;-53
2021/10/01 01:53:30;;;;;;;15.65;8.60;;;;;;;9.31;63.51;101370.38;5031631;28;20516;-53
2021/10/01 01:55:57;;;;;;;16.08;8.65;;;;;;;9.38;63.82;101381.59;5033682;28;20095;-52
2021/10/01 01:58:23;;;;;;;15.90;9.18;;;;;;;9.31;63.51;101364.31;5008662;28;20045;-54
2021/10/01 02:01:07;;;;;;;18.42;9.18;;;;;;;9.26;63.48;101364.28;5022243;28;20045;-57
2021/10/01 02:03:40;;;;;;;15.80;8.25;;;;;;;9.31;63.55;101374.69;5038941;28;20083;-52
2021/10/01 02:06:12;;;;;;;14.32;8.82;;;;;;;9.28;63.53;101374.69;5031386;28;20046;-54
2021/10/01 02:08:39;;;;;;;17.02;8.95;;;;;;;9.12;63.03;101355.69;5015104;28;20129;-51
2021/10/01 02:11:06;;;;;;;16.40;9.07;;;;;;;9.27;63.55;101378.16;5018897;28;20100;-55
2021/10/01 02:13:33;;;;;;;14.02;8.63;;;;;;;9.28;63.05;101378.16;5027962;28;20100;-53
2021/10/01 02:16:10;;;;;;;15.35;8.95;;;;;;;9.28;63.58;101385.94;5028142;28;20050;-51
2021/10/01 02:18:37;;;;;;;14.82;9.48;;;;;;;9.23;63.65;101366.03;5020920;28;20054;-54
2021/10/01 02:21:04;;;;;;;17.55;9.20;;;;;;;9.19;63.90;101359.13;5012321;28;20080;-52
2021/10/01 02:23:32;;;;;;;15.88;9.13;;;;;;;9.25;63.51;101383.38;5027126;28;20071;-57
2021/10/01 02:29:02;;;;;;;14.57;9.05;;;;;;;9.13;63.21;101365.19;5017506;28;20052;-53
2021/10/01 02:31:44;;;;;;;15.98;9.15;;;;;;;9.21;63.40;101380.78;5031293;28;20064;-50
2021/10/01 02:34:10;;;;;;;14.15;8.82;;;;;;;9.20;63.32;101381.63;5014071;28;20052;-50
2021/10/01 02:36:36;;;;;;;18.13;9.88;;;;;;;9.19;63.53;101377.31;5014954;28;20679;-54
2021/10/01 02:39:03;;;;;;;14.77;9.65;;;;;;;9.16;63.00;101383.34;5031550;28;20098;-52
2021/10/01 02:41:28;;;;;;;14.68;8.82;;;;;;;9.16;62.98;101390.31;5031374;28;20576;-52
2021/10/01 02:43:54;;;;;;;13.02;8.60;;;;;;;9.15;62.90;101392.03;5031346;28;20052;-56
2021/10/01 02:46:20;;;;;;;17.08;9.23;;;;;;;9.13;63.30;101382.50;5031318;28;20061;-55
2021/10/01 02:48:49;;;;;;;13.93;8.68;;;;;;;9.10;62.86;101382.53;5025641;28;20048;-51
2021/10/01 02:51:19;;;;;;;14.40;9.10;;;;;;;9.07;62.95;101385.97;5031339;28;20049;-54
2021/10/01 02:53:56;;;;;;;14.88;8.85;;;;;;;9.08;62.81;101384.25;5031855;28;20053;-49
2021/10/01 02:56:32;;;;;;;22.02;12.55;;;;;;;9.11;63.05;101386.81;5011808;28;20042;-53
2021/10/01 02:59:00;;;;;;;16.23;9.57;;;;;;;9.12;63.48;101383.38;5028169;28;20536;-51
2021/10/01 03:01:28;;;;;;;25.83;14.45;;;;;;;9.13;63.42;101390.28;5011520;28;20046;-57
2021/10/01 03:03:59;;;;;;;17.55;10.18;;;;;;;9.10;63.58;101391.16;5023477;28;20509;-53
2021/10/01 03:06:25;;;;;;;16.35;10.18;;;;;;;9.10;63.54;101391.16;5015032;28;20041;-55
2021/10/01 03:08:52;;;;;;;18.45;9.40;;;;;;;9.08;63.48;101385.09;4995198;28;20173;-56
2021/10/01 03:11:24;;;;;;;15.50;10.50;;;;;;;9.06;63.45;101389.41;5027833;28;20531;-53
2021/10/01 03:13:50;;;;;;;15.95;9.85;;;;;;;9.08;63.26;101390.28;5011250;28;20132;-51
2021/10/01 03:16:17;;;;;;;19.08;10.35;;;;;;;9.10;63.52;101387.72;5011179;28;20175;-52
2021/10/01 03:18:44;;;;;;;15.52;10.25;;;;;;;9.11;63.53;101381.63;5027574;28;20046;-50
2021/10/01 03:21:10;;;;;;;17.25;10.63;;;;;;;9.11;63.50;101387.69;5030956;28;20132;-49
2021/10/01 03:23:40;;;;;;;17.95;10.98;;;;;;;9.12;63.98;101386.81;4998562;28;20583;-52
2021/10/01 03:26:06;;;;;;;19.25;10.40;;;;;;;9.12;63.48;101385.94;5030013;28;20057;-51
2021/10/01 03:28:32;;;;;;;15.98;9.77;;;;;;;9.12;64.10;101384.22;5013837;28;20107;-53
2021/10/01 03:30:57;;;;;;;17.35;9.93;;;;;;;9.14;63.93;101386.84;5031394;28;20049;-52
2021/10/01 03:33:30;;;;;;;20.00;10.30;;;;;;;9.13;63.60;101387.69;5029997;28;20045;-55
2021/10/01 03:35:56;;;;;;;18.33;10.50;;;;;;;9.13;63.78;101391.16;5031806;28;20048;-51
2021/10/01 03:38:23;;;;;;;17.10;10.05;;;;;;;9.13;64.04;101393.75;5030495;28;20582;-53
2021/10/01 03:40:51;;;;;;;22.05;10.27;;;;;;;9.09;64.32;101402.41;5030887;28;20112;-51
2021/10/01 03:43:18;;;;;;;19.23;11.00;;;;;;;9.07;63.98;101396.34;5030546;28;20060;-50
2021/10/01 03:45:44;;;;;;;16.75;10.20;;;;;;;9.06;64.23;101392.00;5029493;28;20064;-51
2021/10/01 03:48:10;;;;;;;18.30;11.05;;;;;;;9.06;63.82;101393.75;5019296;28;20046;-55
2021/10/01 03:50:55;;;;;;;18.73;11.38;;;;;;;9.06;64.30;101398.94;5024915;28;20049;-50
2021/10/01 03:53:21;;;;;;;19.98;11.52;;;;;;;9.04;64.22;101396.34;5033972;28;20072;-55
2021/10/01 03:55:46;;;;;;;18.50;10.93;;;;;;;9.05;64.47;101402.41;5043185;28;20088;-52
2021/10/01 03:58:12;;;;;;;20.55;11.70;;;;;;;9.06;64.27;101401.53;5030197;28;20485;-51
2021/10/01 04:00:38;;;;;;;22.58;11.10;;;;;;;9.05;64.83;101392.03;5013811;28;20536;-55
2021/10/01 04:03:04;;;;;;;24.50;11.77;;;;;;;9.05;64.77;101397.22;5022661;28;20045;-54
2021/10/01 04:05:40;;;;;;;21.10;12.32;;;;;;;8.93;64.51;101379.94;5014842;28;20080;-52
2021/10/01 04:08:14;;;;;;;22.98;12.82;;;;;;;9.02;64.13;101394.63;5029392;28;20045;-51
2021/10/01 04:10:43;;;;;;;19.60;12.40;;;;;;;8.93;64.42;101378.22;5028711;28;20528;-53
2021/10/01 04:13:09;;;;;;;27.55;12.65;;;;;;;9.04;64.67;101395.50;5029616;28;20041;-52
2021/10/01 04:15:41;;;;;;;18.77;12.18;;;;;;;9.02;64.70;101390.28;5029513;28;20049;-52
2021/10/01 04:18:07;;;;;;;24.65;13.07;;;;;;;9.01;64.65;101393.75;5024015;28;20060;-53
2021/10/01 04:20:36;;;;;;;19.33;11.95;;;;;;;9.03;64.64;101393.75;5028330;28;20420;-51
2021/10/01 04:23:02;;;;;;;20.17;11.60;;;;;;;8.99;64.86;101392.03;5008539;28;20046;-54
2021/10/01 04:26:00;;;;;;;22.77;12.90;;;;;;;8.99;65.00;101389.44;5010112;28;20056;-51
2021/10/01 04:28:26;;;;;;;22.30;12.80;;;;;;;9.00;64.47;101392.03;5009854;28;20049;-51
2021/10/01 04:30:57;;;;;;;20.50;12.60;;;;;;;9.01;64.78;101392.88;5016342;28;20045;-53
2021/10/01 04:33:25;;;;;;;22.33;13.18;;;;;;;9.01;64.91;101393.75;5029897;28;20052;-52
2021/10/01 04:35:53;;;;;;;25.38;13.13;;;;;;;9.05;64.95;101381.66;5029695;28;20041;-55
2021/10/01 04:38:21;;;;;;;22.83;12.82;;;;;;;9.10;65.05;101390.31;5029165;28;20183;-52
2021/10/01 04:40:48;;;;;;;21.13;13.45;;;;;;;9.12;64.94;101393.75;5029038;28;20119;-55
2021/10/01 04:43:14;;;;;;;21.17;12.38;;;;;;;9.13;64.53;101396.34;5029163;28;20049;-54
2021/10/01 04:45:59;;;;;;;24.10;12.88;;;;;;;9.14;64.79;101392.03;5028269;28;20060;-54
2021/10/01 04:48:25;;;;;;;24.00;12.90;;;;;;;9.09;64.38;101384.25;5028401;28;20539;-49
2021/10/01 04:50:51;;;;;;;23.38;12.93;;;;;;;9.13;64.67;101393.75;5027693;28;20106;-55
2021/10/01 04:53:17;;;;;;;24.85;13.05;;;;;;;9.14;64.72;101403.28;5028632;28;20568;-52
2021/10/01 04:55:47;;;;;;;21.33;12.80;;;;;;;9.16;64.32;101396.31;5011354;28;20056;-51
2021/10/01 04:58:13;;;;;;;30.00;13.60;;;;;;;9.18;64.71;101396.34;5025804;28;20183;-50
2021/10/01 05:01:04;;;;;;;26.95;14.52;;;;;;;9.23;64.44;101405.84;5016283;28;20056;-51
2021/10/01 05:03:49;;;;;;;27.38;12.68;;;;;;;9.25;64.67;101401.53;5027587;28;20071;-51
2021/10/01 05:06:33;;;;;;;23.13;12.65;;;;;;;9.27;64.56;101397.19;5018875;28;20065;-53
2021/10/01 05:09:18;;;;;;;24.88;13.43;;;;;;;9.27;64.35;101398.91;5041005;28;20034;-47
2021/10/01 05:12:02;;;;;;;22.10;12.40;;;;;;;9.28;64.01;101396.31;5012835;28;20123;-52
2021/10/01 05:14:46;;;;;;;20.35;12.60;;;;;;;9.30;64.32;101401.50;5040364;28;20591;-53
2021/10/01 05:17:33;;;;;;;19.80;12.73;;;;;;;9.27;64.26;101399.78;5028473;28;20509;-53
2021/10/01 05:20:17;;;;;;;27.02;15.52;;;;;;;9.29;64.13;101411.03;5026099;28;20042;-49
2021/10/01 05:22:52;;;;;;;21.45;13.27;;;;;;;9.30;63.88;101401.50;5025075;28;20096;-47
2021/10/01 05:25:18;;;;;;;25.13;13.07;;;;;;;9.31;63.95;101396.34;5007968;28;20046;-58
2021/10/01 05:27:44;;;;;;;21.20;13.30;;;;;;;9.33;63.75;101404.97;5025611;28;20045;-56
2021/10/01 05:30:10;;;;;;;26.48;12.77;;;;;;;9.25;63.71;101388.56;5007379;28;20045;-53
2021/10/01 05:32:36;;;;;;;22.67;13.05;;;;;;;9.36;63.99;101401.50;5038456;28;20175;-53
2021/10/01 05:35:03;;;;;;;29.35;13.32;;;;;;;9.38;64.34;101401.47;5029077;28;20045;-53
2021/10/01 05:37:29;;;;;;;26.30;15.90;;;;;;;9.24;64.25;101381.63;5035705;28;20053;-53
2021/10/01 05:39:55;;;;;;;23.42;12.52;;;;;;;9.41;64.01;101404.97;5031709;28;20393;-54
2021/10/01 05:42:21;;;;;;;21.80;12.90;;;;;;;9.41;64.11;101396.31;5032700;28;20055;-52
2021/10/01 05:44:47;;;;;;;19.63;12.20;;;;;;;9.43;63.78;101395.41;5028106;28;20476;-53
2021/10/01 05:47:39;;;;;;;19.60;12.55;;;;;;;9.40;63.88;101384.19;5014565;28;20198;-53
2021/10/01 05:50:25;;;;;;;23.38;12.68;;;;;;;9.43;63.17;101399.75;5028242;28;20044;-51
2021/10/01 05:53:24;;;;;;;32.08;18.20;;;;;;;9.44;63.45;101399.75;5013634;28;20042;-55
2021/10/01 05:56:15;;;;;;;24.90;13.32;;;;;;;9.44;63.57;101399.75;5011517;28;20050;-53
2021/10/01 05:59:10;;;;;;;24.25;11.75;;;;;;;9.45;63.45;101409.28;5012497;28;20518;-57
2021/10/01 06:01:36;;;;;;;21.20;13.27;;;;;;;9.47;63.43;101398.91;5038607;28;20053;-53
2021/10/01 06:04:02;;;;;;;26.08;13.13;;;;;;;9.50;63.68;101404.94;5031937;28;20052;-53
2021/10/01 06:06:28;;;;;;;21.50;12.98;;;;;;;9.56;63.73;101406.66;5033019;28;20044;-52
2021/10/01 06:08:55;;;;;;;21.92;12.65;;;;;;;9.57;63.43;101410.97;5032918;28;20124;-54
2021/10/01 06:11:21;;;;;;;25.02;13.70;;;;;;;9.59;63.00;101406.63;5014426;28;20278;-52
2021/10/01 06:13:47;;;;;;;23.85;12.02;;;;;;;9.62;63.10;101409.22;5030759;28;20147;-56
2021/10/01 06:16:13;;;;;;;26.63;12.85;;;;;;;9.54;63.03;101396.25;5031278;28;20137;-56
2021/10/01 06:18:38;;;;;;;20.98;12.27;;;;;;;9.59;62.87;101404.03;5032509;28;20120;-52
2021/10/01 06:21:05;;;;;;;19.17;11.40;;;;;;;9.68;62.68;101417.00;5029269;28;20045;-52
2021/10/01 06:23:34;;;;;;;19.02;11.82;;;;;;;9.71;62.60;101415.25;5031880;28;20044;-52
2021/10/01 06:26:04;;;;;;;28.67;12.73;;;;;;;9.75;62.57;101414.38;5028739;28;20095;-53
2021/10/01 06:28:31;;;;;;;20.35;12.05;;;;;;;9.81;62.13;101412.63;5032786;28;20420;-56
2021/10/01 06:30:58;;;;;;;18.58;11.02;;;;;;;9.86;62.25;101414.34;5032708;28;20530;-54
2021/10/01 06:33:28;;;;;;;25.17;12.82;;;;;;;9.91;61.77;101422.97;5032546;28;20044;-52
2021/10/01 06:35:53;;;;;;;;;;;;;;;9.93;62.15;101416.06;5031733;28;20540;-56
2021/10/01 06:38:19;;;;;;;22.55;11.45;;;;;;;9.95;61.83;101422.09;5032513;28;19917;-55
2021/10/01 06:40:45;;;;;;;18.55;11.27;;;;;;;9.96;61.45;101421.22;5030292;28;20037;-55
2021/10/01 06:43:12;;;;;;;23.23;11.82;;;;;;;9.88;61.37;101419.53;5012657;28;20049;-54
2021/10/01 06:45:39;;;;;;;24.67;12.73;;;;;;;9.90;61.74;101420.38;5027525;28;20037;-53
2021/10/01 06:51:15;;;;;;;22.08;12.88;;;;;;;9.97;61.66;101422.97;5011069;28;20132;-54
2021/10/01 07:24:03;;;;;;;19.40;11.85;;;;;;;10.49;58.76;101391.50;5031839;28;20067;-53
2021/10/01 08:20:53;;;;;;;20.48;11.68;;;;;;;9.41;58.18;101430.91;5030219;28;20041;-53
2021/10/01 08:23:18;;;;;;;17.75;10.90;;;;;;;9.54;57.84;101421.34;5030209;28;20440;-55
2021/10/01 08:25:44;;;;;;;18.95;11.13;;;;;;;9.73;57.77;101429.09;5028964;28;20046;-55
2021/10/01 08:28:10;;;;;;;22.38;11.77;;;;;;;9.55;57.45;101423.97;5012588;28;20132;-51
2021/10/01 08:30:57;;;;;;;20.75;11.15;;;;;;;9.49;57.70;101425.69;5028541;28;20524;-54
2021/10/01 08:33:23;;;;;;;19.75;11.25;;;;;;;9.44;57.52;101425.72;5028752;28;20132;-52
2021/10/01 08:35:48;;;;;;;20.95;10.50;;;;;;;9.29;57.37;101431.78;5029901;28;20136;-51
2021/10/01 08:38:14;;;;;;;20.23;11.57;;;;;;;9.29;57.66;101434.38;5030296;28;20033;-51
2021/10/01 08:40:40;;;;;;;18.30;10.45;;;;;;;9.53;57.88;101430.88;5030204;28;20045;-51
2021/10/01 08:43:06;;;;;;;20.27;11.02;;;;;;;9.54;57.52;101431.75;5026122;28;20057;-51
2021/10/01 08:45:32;;;;;;;19.85;11.63;;;;;;;9.81;56.92;101433.41;5009910;28;20052;-56
2021/10/01 08:48:00;;;;;;;22.15;11.30;;;;;;;10.03;56.93;101429.88;5010406;28;20041;-54
2021/10/01 08:50:27;;;;;;;18.42;11.52;;;;;;;9.93;56.28;101428.19;5009042;28;20038;-55
2021/10/01 08:52:59;;;;;;;19.83;11.98;;;;;;;9.76;56.78;101431.69;5008912;28;20148;-52
2021/10/01 08:55:25;;;;;;;21.15;11.02;;;;;;;9.88;56.88;101432.53;5010244;28;20164;-51
2021/10/01 08:57:51;;;;;;;25.23;12.32;;;;;;;9.87;57.23;101438.59;5011658;28;20042;-55
2021/10/01 09:00:18;;;;;;;24.08;12.43;;;;;;;9.75;57.64;101436.88;5010123;28;20037;-55
2021/10/01 09:02:45;;;;;;;21.48;12.07;;;;;;;9.71;57.25;101433.44;5025119;28;20379;-54
2021/10/01 09:05:11;;;;;;;19.63;12.00;;;;;;;9.66;57.41;101429.13;5024898;28;20041;-55
2021/10/01 09:07:37;;;;;;;25.80;12.23;;;;;;;9.55;58.13;101421.38;5017270;28;20029;-53
2021/10/01 09:10:09;;;;;;;19.02;11.77;;;;;;;9.79;58.10;101430.81;5028238;28;20045;-54
2021/10/01 09:12:34;;;;;;;21.80;11.57;;;;;;;9.93;57.17;101434.25;5026137;28;20428;-52
2021/10/01 09:15:00;;;;;;;22.17;12.40;;;;;;;9.92;57.17;101427.31;5027979;28;20037;-55
2021/10/01 09:17:31;;;;;;;21.92;11.82;;;;;;;9.90;57.20;101430.75;5035658;28;20050;-52
2021/10/01 09:19:58;;;;;;;23.60;12.20;;;;;;;9.96;56.88;101429.03;5008258;28;20076;-56
2021/10/01 09:22:30;;;;;;;21.33;11.90;;;;;;;10.01;56.66;101435.06;5044647;28;20432;-54
2021/10/01 09:25:13;;;;;;;17.63;11.23;;;;;;;9.96;57.36;101428.16;5027358;28;20045;-53
2021/10/01 09:27:42;;;;;;;22.13;12.02;;;;;;;10.08;56.82;101409.91;5032170;28;20073;-54
2021/10/01 09:30:10;;;;;;;21.45;12.65;;;;;;;10.34;56.92;101435.81;5009056;28;20033;-51
2021/10/01 09:32:36;;;;;;;19.30;12.48;;;;;;;10.14;56.50;101436.75;5008001;28;20037;-51
2021/10/01 09:35:13;;;;;;;25.08;12.80;;;;;;;10.09;56.58;101430.72;5009117;28;20053;-55
2021/10/01 09:37:39;;;;;;;21.63;12.23;;;;;;;9.79;57.23;101436.00;5026661;28;20057;-53
2021/10/01 09:40:06;;;;;;;21.40;12.43;;;;;;;9.58;57.75;101439.53;5028105;28;20037;-54
2021/10/01 09:42:39;;;;;;;23.00;12.55;;;;;;;9.64;57.21;101434.31;5028786;28;20136;-54
2021/10/01 09:45:08;;;;;;;17.00;10.82;;;;;;;9.61;57.36;101433.47;5028813;28;20048;-53
2021/10/01 09:47:38;;;;;;;21.85;12.13;;;;;;;9.53;57.47;101433.47;5028969;28;20080;-52
2021/10/01 09:50:08;;;;;;;26.08;12.82;;;;;;;9.44;57.50;101427.44;5028474;28;20041;-53
2021/10/01 09:52:40;;;;;;;21.05;13.73;;;;;;;9.59;57.35;101427.41;5028375;28;20041;-55
2021/10/01 09:55:06;;;;;;;20.88;12.88;;;;;;;9.85;57.07;101427.31;5029063;28;20046;-55
2021/10/01 09:57:32;;;;;;;23.75;12.23;;;;;;;9.76;57.21;101416.09;5028906;28;20428;-55
2021/10/01 09:59:58;;;;;;;20.52;11.65;;;;;;;9.93;57.33;101429.03;5016942;28;20129;-53
2021/10/01 10:02:24;;;;;;;22.15;13.05;;;;;;;10.01;57.21;101421.19;5009219;28;20393;-52
2021/10/01 10:04:54;;;;;;;22.02;13.32;;;;;;;9.90;57.11;101423.84;4995430;28;20038;-55
2021/10/01 10:07:25;;;;;;;20.45;12.57;;;;;;;9.97;57.37;101429.88;5024058;28;20505;-56
2021/10/01 10:09:52;;;;;;;19.63;12.00;;;;;;;10.12;57.86;101430.69;5009054;28;20042;-52
2021/10/01 10:12:32;;;;;;;28.35;15.68;;;;;;;10.18;57.51;101429.81;5009354;28;20046;-55
2021/10/01 10:14:59;;;;;;;21.65;13.15;;;;;;;10.31;57.31;101425.44;5008949;28;20489;-55
2021/10/01 10:17:28;;;;;;;23.30;12.48;;;;;;;10.24;57.63;101401.22;5009261;28;20053;-53
2021/10/01 10:19:56;;;;;;;18.33;12.55;;;;;;;10.41;57.26;101409.78;5007835;28;20523;-54
2021/10/01 10:22:24;;;;;;;22.88;12.82;;;;;;;10.53;57.52;101430.50;5007812;28;20042;-55
2021/10/01 10:24:50;;;;;;;23.55;12.23;;;;;;;10.51;57.49;101416.66;5008988;28;20042;-51
2021/10/01 10:27:16;;;;;;;20.85;13.32;;;;;;;10.59;57.23;101424.38;5007757;28;20429;-52
2021/10/01 10:29:44;;;;;;;28.90;15.93;;;;;;;10.61;57.41;101425.25;5009075;28;20065;-53
2021/10/01 10:32:12;;;;;;;21.23;13.23;;;;;;;10.58;56.97;101427.84;4991581;28;20038;-56
2021/10/01 10:34:59;;;;;;;20.10;13.05;;;;;;;10.62;56.89;101429.59;5019145;28;20049;-54
2021/10/01 10:37:43;;;;;;;23.70;12.82;;;;;;;10.66;56.64;101430.41;5032040;28;20041;-55
2021/10/01 10:40:16;;;;;;;17.60;11.95;;;;;;;10.62;56.84;101429.59;5032096;28;20044;-53
2021/10/01 10:42:46;;;;;;;19.70;12.45;;;;;;;10.60;56.47;101428.72;5032223;28;20052;-55
2021/10/01 10:45:23;;;;;;;19.70;11.82;;;;;;;10.55;56.55;101414.88;5030816;28;20041;-56
2021/10/01 10:47:53;;;;;;;21.30;12.57;;;;;;;10.65;56.47;101426.94;5030044;28;20073;-50
2021/10/01 10:50:22;;;;;;;21.38;12.07;;;;;;;10.66;57.27;101425.22;5027335;28;20528;-51
2021/10/01 10:55:32;;;;;;;22.17;12.48;;;;;;;10.69;56.52;101426.06;5012181;28;20037;-51
2021/10/01 10:57:58;;;;;;;22.25;12.50;;;;;;;10.70;56.35;101427.78;5012309;28;20037;-52
2021/10/01 11:00:30;;;;;;;20.73;11.75;;;;;;;10.70;56.64;101429.50;5011794;28;20501;-53
2021/10/01 11:03:33;;;;;;;20.58;12.00;;;;;;;10.58;56.47;101433.91;5020714;28;20416;-57
2021/10/01 11:06:13;;;;;;;19.33;11.60;;;;;;;10.42;56.22;101428.81;5030551;28;20045;-56
2021/10/01 11:08:45;;;;;;;17.77;12.27;;;;;;;10.40;56.74;101404.59;5014460;28;20505;-56
2021/10/01 11:11:29;;;;;;;18.85;11.80;;;;;;;10.73;56.10;101427.75;5026669;28;20042;-53
2021/10/01 11:14:20;;;;;;;19.45;12.38;;;;;;;10.82;56.01;101426.84;5011772;28;20046;-52
2021/10/01 11:16:52;;;;;;;17.23;12.02;;;;;;;10.86;55.95;101428.53;5012849;28;20486;-54
2021/10/01 11:19:38;;;;;;;20.15;11.60;;;;;;;10.69;55.78;101428.66;5011697;28;20041;-55
2021/10/01 11:22:26;;;;;;;22.70;14.02;;;;;;;10.66;56.10;101430.41;5011445;28;20076;-51
2021/10/01 11:24:56;;;;;;;19.85;11.68;;;;;;;10.73;55.69;101424.31;5026894;28;20053;-53
2021/10/01 11:27:22;;;;;;;22.70;12.65;;;;;;;10.72;55.94;101426.03;5014558;28;20045;-55
2021/10/01 11:29:48;;;;;;;17.80;11.88;;;;;;;10.48;55.61;101405.38;5031430;28;20083;-52
2021/10/01 11:32:26;;;;;;;15.98;11.23;;;;;;;10.47;56.29;101427.06;5031092;28;20083;-51
2021/10/01 11:34:54;;;;;;;19.33;11.63;;;;;;;10.50;56.60;101424.44;5031036;28;20056;-52
2021/10/01 11:37:28;;;;;;;17.77;11.65;;;;;;;10.58;56.34;101413.13;5029456;28;20465;-54
2021/10/01 11:40:15;;;;;;;16.10;11.38;;;;;;;10.66;56.44;101414.81;5029585;28;20045;-52
2021/10/01 11:42:42;;;;;;;25.10;12.23;;;;;;;10.71;56.74;101416.50;5017853;28;20056;-52
2021/10/01 11:45:21;;;;;;;27.55;15.27;;;;;;;10.78;56.88;101414.72;5009943;28;20437;-54
2021/10/01 11:47:50;;;;;;;19.05;11.05;;;;;;;10.81;56.92;101406.91;5025832;28;20053;-54
2021/10/01 11:50:16;;;;;;;18.65;12.43;;;;;;;10.78;56.61;101412.97;5011388;28;20053;-52
2021/10/01 11:52:44;;;;;;;15.85;11.15;;;;;;;10.73;56.62;101413.91;5011067;28;20045;-52
2021/10/01 11:55:11;;;;;;;16.30;11.25;;;;;;;10.63;56.42;101393.13;5011322;28;20044;-52
2021/10/01 11:57:39;;;;;;;19.52;10.85;;;;;;;10.78;56.82;101406.94;5026381;28;20144;-52
2021/10/01 12:00:11;;;;;;;16.38;10.60;;;;;;;10.82;56.51;101408.63;5009544;28;20042;-54
2021/10/01 12:02:43;;;;;;;22.45;11.20;;;;;;;10.83;56.41;101406.03;5011126;28;20516;-55
2021/10/01 12:05:18;;;;;;;;;;;;;;;10.87;57.01;101412.06;5011625;28;20480;-55
2021/10/01 12:07:49;;;;;;;21.75;10.93;;;;;;;10.88;56.12;101409.44;5018932;28;19923;-51
2021/10/01 12:10:15;;;;;;;18.17;10.45;;;;;;;10.93;56.13;101402.47;5029650;28;20052;-54
2021/10/01 12:13:22;;;;;;;21.17;11.95;;;;;;;10.97;55.92;101405.91;5030648;28;20041;-55
2021/10/01 12:15:51;;;;;;;18.88;10.65;;;;;;;11.03;55.08;101401.50;5029092;28;20045;-54
2021/10/01 12:19:05;;;;;;;15.82;11.15;;;;;;;11.09;55.10;101398.00;5030721;28;20539;-54
2021/10/01 12:21:31;;;;;;;14.77;9.68;;;;;;;11.14;54.88;101395.34;5030668;28;20037;-55
2021/10/01 12:24:11;;;;;;;15.02;9.48;;;;;;;11.12;54.90;101399.69;5030406;28;20815;-53
2021/10/01 12:26:40;;;;;;;13.85;9.68;;;;;;;10.95;54.90;101376.41;5011179;28;20057;-53
2021/10/01 12:29:19;;;;;;;17.30;8.73;;;;;;;11.00;54.66;101395.44;5010830;28;20046;-52
2021/10/01 12:31:49;;;;;;;;;;;;;;;10.97;54.75;101396.34;5011217;28;20341;-55
2021/10/01 12:34:18;;;;;;;13.43;8.60;;;;;;;10.97;54.35;101392.88;5042358;28;19957;-55
2021/10/01 12:36:45;;;;;;;13.30;9.07;;;;;;;10.93;55.23;101388.59;5010643;28;20041;-52
2021/10/01 12:39:11;;;;;;;19.30;8.63;;;;;;;10.94;54.84;101385.94;5028369;28;20053;-54
2021/10/01 12:41:37;;;;;;;16.13;8.63;;;;;;;10.92;54.95;101385.13;5028132;28;20039;-53
2021/10/01 12:44:05;;;;;;;15.73;9.05;;;;;;;10.88;55.04;101374.75;5030260;28;20119;-57
2021/10/01 12:46:33;;;;;;;13.45;8.95;;;;;;;10.84;54.66;101380.84;5028544;28;20061;-53
2021/10/01 12:49:22;;;;;;;16.13;9.18;;;;;;;10.81;55.35;101379.13;5030151;28;20053;-54
2021/10/01 12:52:03;;;;;;;13.90;8.18;;;;;;;10.77;55.35;101374.84;5030134;28;20045;-55
2021/10/01 12:54:31;;;;;;;20.80;9.38;;;;;;;10.70;55.47;101365.34;5034189;28;20049;-54
2021/10/01 12:57:11;;;;;;;18.50;8.77;;;;;;;10.72;55.48;101370.56;5010568;28;20124;-54
2021/10/01 12:59:47;;;;;;;;;;;;;;;10.70;55.25;101365.34;5010408;28;20038;-54
2021/10/01 13:02:19;;;;;;;13.65;8.00;;;;;;;10.65;55.79;101368.84;5008841;28;20254;-54
2021/10/01 13:05:06;;;;;;;17.80;7.88;;;;;;;10.61;55.72;101366.28;5010091;28;20052;-52
2021/10/01 13:08:02;;;;;;;16.13;7.90;;;;;;;10.62;56.28;101369.75;5016379;28;20045;-54